sensor_id;sensor_type;location;lat;lon;timestamp;pressure;altitude;pressure_sealevel;temperature;humidity
15444;BME280;7822;48.146;11.576;2022-08-21T00:00:22;95531.59;;;19.64;80.31
15444;BME280;7822;48.146;11.576;2022-08-21T00:02:53;95521.72;;;19.66;80.22
15444;BME280;7822;48.146;11.576;2022-08-21T00:05:24;95521.41;;;19.61;79.67
15444;BME280;7822;48.146;11.576;2022-08-21T00:07:52;95521.25;;;19.62;79.90
15444;BME280;7822;48.146;11.576;2022-08-21T00:10:22;95520.16;;;19.49;80.39
15444;BME280;7822;48.146;11.576;2022-08-21T00:16:38;95517.22;;;19.36;80.53
15444;BME280;7822;48.146;11.576;2022-08-21T00:19:06;95518.84;;;19.29;80.93
15444;BME280;7822;48.146;11.576;2022-08-21T00:26:37;95516.22;;;19.45;79.76
15444;BME280;7822;48.146;11.576;2022-08-21T00:29:03;95524.75;;;19.39;79.88
15444;BME280;7822;48.146;11.576;2022-08-21T00:31:30;95525.25;;;19.42;79.59
15444;BME280;7822;48.146;11.576;2022-08-21T00:33:56;95520.84;;;19.35;79.70
15444;BME280;7822;48.146;11.576;2022-08-21T00:36:26;95516.03;;;19.30;79.57
15444;BME280;7822;48.146;11.576;2022-08-21T00:38:56;95514.06;;;19.32;79.83
15444;BME280;7822;48.146;11.576;2022-08-21T00:45:26;95518.38;;;19.25;79.69
15444;BME280;7822;48.146;11.576;2022-08-21T00:47:53;95516.25;;;19.12;79.73
15444;BME280;7822;48.146;11.576;2022-08-21T03:02:52;95472.47;;;18.81;76.65
15444;BME280;7822;48.146;11.576;2022-08-21T03:05:20;95472.47;;;18.81;76.49
15444;BME280;7822;48.146;11.576;2022-08-21T03:07:48;95478.19;;;18.84;76.64
15444;BME280;7822;48.146;11.576;2022-08-21T03:10:16;95466.84;;;18.84;76.54
15444;BME280;7822;48.146;11.576;2022-08-21T03:12:43;95470.50;;;18.75;76.43
15444;BME280;7822;48.146;11.576;2022-08-21T03:15:14;95481.00;;;18.75;76.82
15444;BME280;7822;48.146;11.576;2022-08-21T03:17:42;95486.94;;;18.77;76.40
15444;BME280;7822;48.146;11.576;2022-08-21T03:20:12;95484.28;;;18.77;76.02
15444;BME280;7822;48.146;11.576;2022-08-21T03:22:41;95482.13;;;18.88;76.23
15444;BME280;7822;48.146;11.576;2022-08-21T03:25:18;95475.22;;;18.95;75.77
15444;BME280;7822;48.146;11.576;2022-08-21T03:28:07;95474.88;;;18.98;75.31
15444;BME280;7822;48.146;11.576;2022-08-21T03:30:38;95470.75;;;19.04;75.46
15444;BME280;7822;48.146;11.576;2022-08-21T03:33:06;95463.50;;;19.06;75.32
15444;BME280;7822;48.146;11.576;2022-08-21T03:43:14;95470.94;;;19.02;74.67
15444;BME280;7822;48.146;11.576;2022-08-21T03:45:42;95470.28;;;19.00;74.77
15444;BME280;7822;48.146;11.576;2022-08-21T03:48:10;95485.28;;;18.76;75.17
15444;BME280;7822;48.146;11.576;2022-08-21T03:50:41;95486.44;;;18.65;75.59
15444;BME280;7822;48.146;11.576;2022-08-21T03:53:10;95483.31;;;18.70;75.60
15444;BME280;7822;48.146;11.576;2022-08-21T03:55:44;95493.78;;;18.86;75.64
15444;BME280;7822;48.146;11.576;2022-08-21T03:58:37;95491.53;;;18.75;75.04
15444;BME280;7822;48.146;11.576;2022-08-21T04:01:05;95486.22;;;18.91;74.82
15444;BME280;7822;48.146;11.576;2022-08-21T04:03:35;95488.06;;;18.82;74.64
15444;BME280;7822;48.146;11.576;2022-08-21T04:06:04;95488.53;;;18.78;75.68
15444;BME280;7822;48.146;11.576;2022-08-21T04:12:13;95489.84;;;18.90;74.84
15444;BME280;7822;48.146;11.576;2022-08-21T04:18:24;95498.09;;;18.79;75.26
15444;BME280;7822;48.146;11.576;2022-08-21T04:20:52;95496.91;;;18.89;74.50
15444;BME280;7822;48.146;11.576;2022-08-21T04:23:21;95495.59;;;18.77;74.65
15444;BME280;7822;48.146;11.576;2022-08-21T04:25:51;95493.13;;;18.84;74.71
15444;BME280;7822;48.146;11.576;2022-08-21T04:28:19;95495.59;;;18.93;74.36
15444;BME280;7822;48.146;11.576;2022-08-21T04:30:49;95501.84;;;19.00;73.66
15444;BME280;7822;48.146;11.576;2022-08-21T04:33:18;95505.63;;;18.98;73.73
15444;BME280;7822;48.146;11.576;2022-08-21T04:35:47;95513.31;;;18.99;73.61
15444;BME280;7822;48.146;11.576;2022-08-21T04:38:15;95517.44;;;18.94;73.92
15444;BME280;7822;48.146;11.576;2022-08-21T04:40:43;95520.06;;;18.86;74.16
15444;BME280;7822;48.146;11.576;2022-08-21T04:43:12;95513.38;;;18.83;74.04
15444;BME280;7822;48.146;11.576;2022-08-21T04:45:43;95519.28;;;18.69;74.32
15444;BME280;7822;48.146;11.576;2022-08-21T04:52:00;95519.44;;;18.76;74.33
15444;BME280;7822;48.146;11.576;2022-08-21T04:54:28;95524.34;;;18.87;73.85
15444;BME280;7822;48.146;11.576;2022-08-21T04:57:00;95521.72;;;18.71;73.68
15444;BME280;7822;48.146;11.576;2022-08-21T04:59:33;95525.69;;;18.67;73.65
15444;BME280;7822;48.146;11.576;2022-08-21T05:02:03;95528.13;;;18.68;73.80
15444;BME280;7822;48.146;11.576;2022-08-21T05:12:09;95526.66;;;18.58;74.68
15444;BME280;7822;48.146;11.576;2022-08-21T05:18:19;95523.22;;;18.89;73.23
15444;BME280;7822;48.146;11.576;2022-08-21T05:20:46;95516.16;;;18.90;73.42
15444;BME280;7822;48.146;11.576;2022-08-21T05:23:14;95526.81;;;18.80;73.61
15444;BME280;7822;48.146;11.576;2022-08-21T05:25:42;95526.19;;;18.78;73.85
15444;BME280;7822;48.146;11.576;2022-08-21T05:28:12;95526.81;;;18.80;73.69
15444;BME280;7822;48.146;11.576;2022-08-21T05:30:40;95533.59;;;18.75;73.72
15444;BME280;7822;48.146;11.576;2022-08-21T05:33:08;95529.13;;;18.75;73.70
15444;BME280;7822;48.146;11.576;2022-08-21T05:35:37;95526.50;;;18.83;73.99
15444;BME280;7822;48.146;11.576;2022-08-21T05:45:42;95543.41;;;18.73;73.73
15444;BME280;7822;48.146;11.576;2022-08-21T05:55:38;95545.22;;;19.04;73.30
15444;BME280;7822;48.146;11.576;2022-08-21T05:58:12;95544.06;;;18.99;73.12
15444;BME280;7822;48.146;11.576;2022-08-21T06:00:42;95548.97;;;19.02;73.10
15444;BME280;7822;48.146;11.576;2022-08-21T06:06:59;95542.75;;;19.03;72.83
15444;BME280;7822;48.146;11.576;2022-08-21T06:09:27;95542.09;;;19.01;73.31
15444;BME280;7822;48.146;11.576;2022-08-21T06:11:55;95550.63;;;18.95;73.42
15444;BME280;7822;48.146;11.576;2022-08-21T06:14:22;95550.50;;;18.96;73.37
15444;BME280;7822;48.146;11.576;2022-08-21T06:16:51;95543.91;;;19.00;72.64
15444;BME280;7822;48.146;11.576;2022-08-21T06:19:19;95545.38;;;19.03;72.66
15444;BME280;7822;48.146;11.576;2022-08-21T06:21:47;95547.50;;;18.99;72.92
15444;BME280;7822;48.146;11.576;2022-08-21T06:24:15;95546.84;;;18.97;72.87
15444;BME280;7822;48.146;11.576;2022-08-21T06:26:42;95545.69;;;19.00;72.94
15444;BME280;7822;48.146;11.576;2022-08-21T06:29:10;95543.56;;;19.03;72.58
15444;BME280;7822;48.146;11.576;2022-08-21T06:31:39;95544.88;;;18.99;73.07
15444;BME280;7822;48.146;11.576;2022-08-21T06:34:08;95551.44;;;19.03;72.96
15444;BME280;7822;48.146;11.576;2022-08-21T06:36:36;95551.13;;;19.06;72.44
15444;BME280;7822;48.146;11.576;2022-08-21T06:39:04;95551.13;;;19.06;72.25
15444;BME280;7822;48.146;11.576;2022-08-21T06:41:51;95552.28;;;19.12;72.24
15444;BME280;7822;48.146;11.576;2022-08-21T06:44:19;95545.84;;;19.14;72.59
15444;BME280;7822;48.146;11.576;2022-08-21T06:46:47;95539.44;;;19.25;71.87
15444;BME280;7822;48.146;11.576;2022-08-21T06:49:16;95548.28;;;19.24;71.51
15444;BME280;7822;48.146;11.576;2022-08-21T06:51:47;95538.59;;;19.24;71.15
15444;BME280;7822;48.146;11.576;2022-08-21T06:54:15;95540.38;;;19.32;71.37
15444;BME280;7822;48.146;11.576;2022-08-21T06:56:42;95531.50;;;19.33;71.49
15444;BME280;7822;48.146;11.576;2022-08-21T06:59:10;95538.56;;;19.33;70.81
15444;BME280;7822;48.146;11.576;2022-08-21T07:01:38;95542.34;;;19.30;70.75
15444;BME280;7822;48.146;11.576;2022-08-21T07:04:06;95536.28;;;19.38;70.49
15444;BME280;7822;48.146;11.576;2022-08-21T07:06:35;95534.63;;;19.45;71.58
15444;BME280;7822;48.146;11.576;2022-08-21T07:09:03;95519.13;;;19.50;70.62
15444;BME280;7822;48.146;11.576;2022-08-21T07:11:30;95526.25;;;19.49;70.61
15444;BME280;7822;48.146;11.576;2022-08-21T07:14:10;95524.41;;;19.58;70.32
15444;BME280;7822;48.146;11.576;2022-08-21T07:16:46;95532.06;;;19.67;70.24
15444;BME280;7822;48.146;11.576;2022-08-21T07:19:14;95525.78;;;19.76;69.75
15444;BME280;7822;48.146;11.576;2022-08-21T07:21:43;95521.84;;;19.72;69.41
15444;BME280;7822;48.146;11.576;2022-08-21T07:24:11;95517.09;;;19.76;68.14
15444;BME280;7822;48.146;11.576;2022-08-21T07:26:40;95516.56;;;19.80;67.52
15444;BME280;7822;48.146;11.576;2022-08-21T07:29:08;95514.59;;;19.74;66.29
15444;BME280;7822;48.146;11.576;2022-08-21T07:35:23;95516.69;;;19.87;64.04
15444;BME280;7822;48.146;11.576;2022-08-21T07:37:52;95520.50;;;19.76;63.81
15444;BME280;7822;48.146;11.576;2022-08-21T07:44:01;95518.78;;;19.91;64.47
15444;BME280;7822;48.146;11.576;2022-08-21T07:46:32;95518.00;;;19.91;64.42
15444;BME280;7822;48.146;11.576;2022-08-21T07:48:59;95518.94;;;19.98;62.72
15444;BME280;7822;48.146;11.576;2022-08-21T07:51:28;95519.72;;;20.07;62.50
15444;BME280;7822;48.146;11.576;2022-08-21T07:53:58;95513.09;;;20.11;63.33
15444;BME280;7822;48.146;11.576;2022-08-21T07:56:27;95516.19;;;20.14;63.96
15444;BME280;7822;48.146;11.576;2022-08-21T07:58:55;95504.50;;;20.17;63.94
15444;BME280;7822;48.146;11.576;2022-08-21T08:01:24;95506.16;;;20.18;64.07
15444;BME280;7822;48.146;11.576;2022-08-21T08:03:52;95505.34;;;20.09;65.22
15444;BME280;7822;48.146;11.576;2022-08-21T08:06:19;95508.13;;;20.24;65.03
15444;BME280;7822;48.146;11.576;2022-08-21T08:08:47;95504.06;;;20.36;63.93
15444;BME280;7822;48.146;11.576;2022-08-21T08:11:16;95506.38;;;20.39;62.44
15444;BME280;7822;48.146;11.576;2022-08-21T08:13:45;95506.69;;;20.36;63.95
15444;BME280;7822;48.146;11.576;2022-08-21T08:16:14;95505.84;;;20.43;62.98
15444;BME280;7822;48.146;11.576;2022-08-21T08:18:42;95507.66;;;20.43;63.81
15444;BME280;7822;48.146;11.576;2022-08-21T08:21:11;95502.97;;;20.53;63.34
15444;BME280;7822;48.146;11.576;2022-08-21T08:23:39;95505.88;;;20.58;62.90
15444;BME280;7822;48.146;11.576;2022-08-21T08:26:07;95504.56;;;20.62;62.95
15444;BME280;7822;48.146;11.576;2022-08-21T08:33:25;95498.06;;;20.64;62.81
15444;BME280;7822;48.146;11.576;2022-08-21T08:35:54;95490.47;;;20.69;63.01
15444;BME280;7822;48.146;11.576;2022-08-21T08:46:16;95500.50;;;20.89;62.69
15444;BME280;7822;48.146;11.576;2022-08-21T08:48:50;95493.59;;;20.88;63.12
15444;BME280;7822;48.146;11.576;2022-08-21T08:51:24;95495.22;;;20.89;63.19
15444;BME280;7822;48.146;11.576;2022-08-21T08:53:57;95503.78;;;20.91;63.41
15444;BME280;7822;48.146;11.576;2022-08-21T08:56:31;95491.25;;;20.93;63.38
15444;BME280;7822;48.146;11.576;2022-08-21T08:59:05;95492.34;;;20.98;63.43
15444;BME280;7822;48.146;11.576;2022-08-21T09:09:33;95494.31;;;21.19;62.67
15444;BME280;7822;48.146;11.576;2022-08-21T09:12:07;95497.66;;;21.13;63.49
15444;BME280;7822;48.146;11.576;2022-08-21T09:14:47;95487.88;;;21.21;63.57
15444;BME280;7822;48.146;11.576;2022-08-21T09:17:26;95496.38;;;21.09;64.02
15444;BME280;7822;48.146;11.576;2022-08-21T09:20:11;95490.41;;;21.44;62.45
15444;BME280;7822;48.146;11.576;2022-08-21T09:26:26;95490.78;;;21.41;62.66
15444;BME280;7822;48.146;11.576;2022-08-21T09:28:58;95484.47;;;21.42;63.43
15444;BME280;7822;48.146;11.576;2022-08-21T09:31:28;95494.75;;;21.37;64.04
15444;BME280;7822;48.146;11.576;2022-08-21T09:33:58;95487.94;;;21.57;63.22
15444;BME280;7822;48.146;11.576;2022-08-21T09:36:33;95490.66;;;21.64;62.74
15444;BME280;7822;48.146;11.576;2022-08-21T09:39:03;95490.88;;;21.48;63.54
15444;BME280;7822;48.146;11.576;2022-08-21T09:41:34;95488.59;;;21.45;63.98
15444;BME280;7822;48.146;11.576;2022-08-21T09:44:04;95486.56;;;21.47;64.24
15444;BME280;7822;48.146;11.576;2022-08-21T09:50:22;95478.25;;;21.93;61.95
15444;BME280;7822;48.146;11.576;2022-08-21T09:52:58;95486.09;;;21.87;62.29
15444;BME280;7822;48.146;11.576;2022-08-21T09:55:32;95480.25;;;21.77;63.54
15444;BME280;7822;48.146;11.576;2022-08-21T09:58:20;95471.19;;;21.65;64.36
15444;BME280;7822;48.146;11.576;2022-08-21T10:00:57;95471.53;;;21.62;64.86
15444;BME280;7822;48.146;11.576;2022-08-21T10:03:25;95471.91;;;21.59;65.14
15444;BME280;7822;48.146;11.576;2022-08-21T10:05:56;95474.72;;;21.72;64.89
15444;BME280;7822;48.146;11.576;2022-08-21T10:08:27;95474.41;;;21.81;64.70
15444;BME280;7822;48.146;11.576;2022-08-21T10:11:05;95469.31;;;21.80;64.96
15444;BME280;7822;48.146;11.576;2022-08-21T10:13:46;95472.59;;;21.82;65.08
15444;BME280;7822;48.146;11.576;2022-08-21T10:16:28;95463.22;;;21.79;65.51
15444;BME280;7822;48.146;11.576;2022-08-21T10:19:11;95466.69;;;21.80;65.46
15444;BME280;7822;48.146;11.576;2022-08-21T10:29:18;95463.81;;;22.10;63.44
15444;BME280;7822;48.146;11.576;2022-08-21T10:31:56;95465.63;;;22.10;63.68
15444;BME280;7822;48.146;11.576;2022-08-21T10:34:48;95467.13;;;21.98;64.21
15444;BME280;7822;48.146;11.576;2022-08-21T10:37:29;95461.66;;;21.99;64.42
15444;BME280;7822;48.146;11.576;2022-08-21T10:40:08;95456.66;;;21.90;64.44
15444;BME280;7822;48.146;11.576;2022-08-21T10:42:50;95459.06;;;21.85;63.88
15444;BME280;7822;48.146;11.576;2022-08-21T10:45:33;95457.88;;;21.87;64.37
15444;BME280;7822;48.146;11.576;2022-08-21T10:48:05;95458.31;;;21.91;64.16
15444;BME280;7822;48.146;11.576;2022-08-21T10:50:41;95450.75;;;21.88;64.62
15444;BME280;7822;48.146;11.576;2022-08-21T10:53:32;95447.38;;;21.94;64.89
15444;BME280;7822;48.146;11.576;2022-08-21T10:56:12;95450.03;;;21.94;64.77
15444;BME280;7822;48.146;11.576;2022-08-21T10:58:45;95444.41;;;22.03;64.92
15444;BME280;7822;48.146;11.576;2022-08-21T11:01:20;95443.50;;;22.11;63.43
15444;BME280;7822;48.146;11.576;2022-08-21T11:04:03;95457.06;;;22.08;63.60
15444;BME280;7822;48.146;11.576;2022-08-21T11:06:38;95446.50;;;22.08;63.12
15444;BME280;7822;48.146;11.576;2022-08-21T11:09:11;95431.66;;;22.07;63.38
15444;BME280;7822;48.146;11.576;2022-08-21T11:19:13;95438.00;;;22.12;63.16
15444;BME280;7822;48.146;11.576;2022-08-21T11:21:46;95439.75;;;22.05;63.54
15444;BME280;7822;48.146;11.576;2022-08-21T11:24:27;95438.72;;;22.42;61.19
15444;BME280;7822;48.146;11.576;2022-08-21T11:26:59;95433.03;;;22.45;60.42
15444;BME280;7822;48.146;11.576;2022-08-21T11:37:10;95431.59;;;22.22;60.75
15444;BME280;7822;48.146;11.576;2022-08-21T11:39:45;95424.03;;;22.19;60.33
15444;BME280;7822;48.146;11.576;2022-08-21T11:42:24;95430.00;;;22.48;59.85
15444;BME280;7822;48.146;11.576;2022-08-21T11:45:10;95421.13;;;22.56;60.62
15444;BME280;7822;48.146;11.576;2022-08-21T11:47:53;95417.41;;;22.50;60.88
15444;BME280;7822;48.146;11.576;2022-08-21T11:50:25;95421.72;;;22.51;60.46
15444;BME280;7822;48.146;11.576;2022-08-21T11:53:07;95423.28;;;22.46;58.84
15444;BME280;7822;48.146;11.576;2022-08-21T11:55:40;95414.84;;;22.36;59.33
15444;BME280;7822;48.146;11.576;2022-08-21T11:58:15;95416.31;;;22.38;56.60
15444;BME280;7822;48.146;11.576;2022-08-21T12:00:47;95417.25;;;22.58;53.50
15444;BME280;7822;48.146;11.576;2022-08-21T12:03:24;95416.78;;;22.48;53.97
15444;BME280;7822;48.146;11.576;2022-08-21T12:05:55;95410.94;;;22.53;51.99
15444;BME280;7822;48.146;11.576;2022-08-21T12:08:30;95407.03;;;22.49;53.59
15444;BME280;7822;48.146;11.576;2022-08-21T12:11:04;95409.22;;;22.45;53.99
15444;BME280;7822;48.146;11.576;2022-08-21T12:13:36;95399.03;;;22.91;52.06
15444;BME280;7822;48.146;11.576;2022-08-21T12:16:10;95397.19;;;22.92;50.98
15444;BME280;7822;48.146;11.576;2022-08-21T12:18:38;95399.63;;;22.87;51.13
15444;BME280;7822;48.146;11.576;2022-08-21T12:21:23;95394.75;;;22.90;50.40
15444;BME280;7822;48.146;11.576;2022-08-21T12:38:35;95387.28;;;23.07;47.68
15444;BME280;7822;48.146;11.576;2022-08-21T12:41:10;95383.13;;;23.25;47.88
15444;BME280;7822;48.146;11.576;2022-08-21T12:43:47;95366.72;;;23.36;47.94
15444;BME280;7822;48.146;11.576;2022-08-21T12:46:20;95380.09;;;23.28;49.50
15444;BME280;7822;48.146;11.576;2022-08-21T12:48:59;95372.28;;;23.14;50.73
15444;BME280;7822;48.146;11.576;2022-08-21T12:51:32;95370.19;;;23.03;51.47
15444;BME280;7822;48.146;11.576;2022-08-21T12:54:03;95363.03;;;22.97;51.89
15444;BME280;7822;48.146;11.576;2022-08-21T12:56:33;95363.00;;;22.90;52.13
15444;BME280;7822;48.146;11.576;2022-08-21T12:59:03;95363.81;;;22.91;51.41
15444;BME280;7822;48.146;11.576;2022-08-21T13:01:33;95360.34;;;22.90;51.94
15444;BME280;7822;48.146;11.576;2022-08-21T13:04:10;95359.75;;;22.95;51.49
15444;BME280;7822;48.146;11.576;2022-08-21T13:06:41;95360.16;;;22.92;52.22
15444;BME280;7822;48.146;11.576;2022-08-21T13:09:13;95355.44;;;22.87;51.74
15444;BME280;7822;48.146;11.576;2022-08-21T13:11:44;95358.75;;;22.96;50.71
15444;BME280;7822;48.146;11.576;2022-08-21T13:14:22;95354.72;;;23.00;50.84
15444;BME280;7822;48.146;11.576;2022-08-21T13:16:53;95361.03;;;23.05;51.14
15444;BME280;7822;48.146;11.576;2022-08-21T13:19:23;95360.81;;;23.00;51.67
15444;BME280;7822;48.146;11.576;2022-08-21T13:37:07;95345.44;;;23.23;50.10
15444;BME280;7822;48.146;11.576;2022-08-21T13:39:35;95345.56;;;23.43;48.35
15444;BME280;7822;48.146;11.576;2022-08-21T13:42:10;95344.34;;;23.45;48.26
15444;BME280;7822;48.146;11.576;2022-08-21T13:44:41;95340.06;;;23.51;48.76
15444;BME280;7822;48.146;11.576;2022-08-21T13:47:12;95332.84;;;23.79;47.86
15444;BME280;7822;48.146;11.576;2022-08-21T13:49:43;95337.53;;;23.90;46.04
15444;BME280;7822;48.146;11.576;2022-08-21T13:56:02;95337.91;;;23.81;48.21
15444;BME280;7822;48.146;11.576;2022-08-21T13:58:33;95336.28;;;23.86;48.28
15444;BME280;7822;48.146;11.576;2022-08-21T14:01:18;95332.00;;;23.79;48.58
15444;BME280;7822;48.146;11.576;2022-08-21T14:03:48;95326.91;;;23.84;47.53
15444;BME280;7822;48.146;11.576;2022-08-21T14:06:19;95331.81;;;23.87;48.03
15444;BME280;7822;48.146;11.576;2022-08-21T14:16:27;95334.94;;;24.43;46.57
15444;BME280;7822;48.146;11.576;2022-08-21T14:19:09;95332.06;;;24.77;45.03
15444;BME280;7822;48.146;11.576;2022-08-21T14:21:40;95334.47;;;24.98;45.51
15444;BME280;7822;48.146;11.576;2022-08-21T14:24:12;95332.59;;;25.05;45.83
15444;BME280;7822;48.146;11.576;2022-08-21T14:26:49;95327.22;;;25.31;43.56
15444;BME280;7822;48.146;11.576;2022-08-21T14:29:19;95334.41;;;25.68;43.95
15444;BME280;7822;48.146;11.576;2022-08-21T14:31:51;95330.41;;;25.91;43.95
15444;BME280;7822;48.146;11.576;2022-08-21T14:34:20;95335.94;;;25.83;42.95
15444;BME280;7822;48.146;11.576;2022-08-21T14:36:49;95337.75;;;25.57;44.07
15444;BME280;7822;48.146;11.576;2022-08-21T14:39:17;95332.31;;;25.33;43.76
15444;BME280;7822;48.146;11.576;2022-08-21T14:41:45;95335.84;;;25.07;44.53
15444;BME280;7822;48.146;11.576;2022-08-21T14:44:15;95328.97;;;24.93;45.87
15444;BME280;7822;48.146;11.576;2022-08-21T14:46:44;95328.50;;;25.16;44.58
15444;BME280;7822;48.146;11.576;2022-08-21T14:49:24;95328.81;;;25.32;45.04
15444;BME280;7822;48.146;11.576;2022-08-21T14:51:55;95325.94;;;25.34;43.59
15444;BME280;7822;48.146;11.576;2022-08-21T14:54:25;95323.72;;;25.31;44.76
15444;BME280;7822;48.146;11.576;2022-08-21T14:56:58;95320.56;;;25.53;44.06
15444;BME280;7822;48.146;11.576;2022-08-21T14:59:27;95316.41;;;25.70;43.71
15444;BME280;7822;48.146;11.576;2022-08-21T15:01:55;95320.94;;;25.63;44.83
15444;BME280;7822;48.146;11.576;2022-08-21T15:04:24;95320.13;;;25.63;45.31
15444;BME280;7822;48.146;11.576;2022-08-21T15:06:52;95313.19;;;25.93;43.38
15444;BME280;7822;48.146;11.576;2022-08-21T15:09:20;95314.88;;;26.19;43.28
15444;BME280;7822;48.146;11.576;2022-08-21T15:11:48;95315.97;;;26.36;43.19
15444;BME280;7822;48.146;11.576;2022-08-21T15:14:19;95313.56;;;26.53;42.71
15444;BME280;7822;48.146;11.576;2022-08-21T15:16:48;95308.50;;;26.69;41.39
15444;BME280;7822;48.146;11.576;2022-08-21T15:19:16;95317.38;;;26.63;41.86
15444;BME280;7822;48.146;11.576;2022-08-21T15:21:45;95311.88;;;26.58;41.71
15444;BME280;7822;48.146;11.576;2022-08-21T15:24:13;95310.22;;;26.57;42.91
15444;BME280;7822;48.146;11.576;2022-08-21T15:26:42;95315.56;;;26.57;42.01
15444;BME280;7822;48.146;11.576;2022-08-21T15:29:11;95307.44;;;26.52;42.30
15444;BME280;7822;48.146;11.576;2022-08-21T15:31:49;95310.22;;;26.57;43.19
15444;BME280;7822;48.146;11.576;2022-08-21T15:34:17;95306.72;;;26.63;43.04
15444;BME280;7822;48.146;11.576;2022-08-21T15:36:50;95312.03;;;26.63;43.12
15444;BME280;7822;48.146;11.576;2022-08-21T15:39:26;95311.59;;;26.66;42.95
15444;BME280;7822;48.146;11.576;2022-08-21T15:42:19;95300.50;;;26.69;42.76
15444;BME280;7822;48.146;11.576;2022-08-21T15:44:47;95307.88;;;26.74;42.43
15444;BME280;7822;48.146;11.576;2022-08-21T15:47:28;95304.78;;;26.70;43.33
15444;BME280;7822;48.146;11.576;2022-08-21T15:50:36;95306.72;;;26.63;42.47
15444;BME280;7822;48.146;11.576;2022-08-21T15:54:07;95300.56;;;26.63;40.18
15444;BME280;7822;48.146;11.576;2022-08-21T15:56:39;95301.41;;;26.63;42.23
15444;BME280;7822;48.146;11.576;2022-08-21T15:59:19;95299.97;;;26.61;42.42
15444;BME280;7822;48.146;11.576;2022-08-21T16:06:08;95294.13;;;26.52;41.45
15444;BME280;7822;48.146;11.576;2022-08-21T16:08:36;95293.72;;;26.48;42.14
15444;BME280;7822;48.146;11.576;2022-08-21T16:14:42;95301.19;;;26.40;39.95
15444;BME280;7822;48.146;11.576;2022-08-21T16:17:14;95290.94;;;26.43;41.74
15444;BME280;7822;48.146;11.576;2022-08-21T16:20:39;95290.53;;;26.40;41.75
15444;BME280;7822;48.146;11.576;2022-08-21T16:26:57;95296.97;;;26.32;41.71
15444;BME280;7822;48.146;11.576;2022-08-21T16:30:25;95290.06;;;26.25;42.01
15444;BME280;7822;48.146;11.576;2022-08-21T16:33:00;95292.72;;;26.25;41.31
15444;BME280;7822;48.146;11.576;2022-08-21T16:36:00;95283.94;;;26.24;41.69
15444;BME280;7822;48.146;11.576;2022-08-21T16:39:09;95286.44;;;26.19;39.78
15444;BME280;7822;48.146;11.576;2022-08-21T16:41:37;95282.69;;;26.27;41.74
15444;BME280;7822;48.146;11.576;2022-08-21T16:44:05;95277.84;;;26.17;41.17
15444;BME280;7822;48.146;11.576;2022-08-21T16:46:39;95278.94;;;26.10;40.60
15444;BME280;7822;48.146;11.576;2022-08-21T16:49:07;95282.19;;;26.12;41.76
15444;BME280;7822;48.146;11.576;2022-08-21T16:51:36;95274.63;;;26.09;41.45
15444;BME280;7822;48.146;11.576;2022-08-21T16:54:04;95275.88;;;26.13;42.20
15444;BME280;7822;48.146;11.576;2022-08-21T16:56:32;95282.00;;;26.07;42.77
15444;BME280;7822;48.146;11.576;2022-08-21T16:59:10;95274.88;;;26.01;42.75
15444;BME280;7822;48.146;11.576;2022-08-21T17:01:51;95272.94;;;25.90;43.23
15444;BME280;7822;48.146;11.576;2022-08-21T17:04:19;95274.81;;;25.83;43.24
15444;BME280;7822;48.146;11.576;2022-08-21T17:06:50;95272.66;;;25.73;43.40
15444;BME280;7822;48.146;11.576;2022-08-21T17:10:31;95276.78;;;25.62;43.48
15444;BME280;7822;48.146;11.576;2022-08-21T17:24:17;95286.81;;;25.16;43.94
15444;BME280;7822;48.146;11.576;2022-08-21T17:26:46;95285.19;;;25.15;42.32
15444;BME280;7822;48.146;11.576;2022-08-21T17:32:56;95289.75;;;24.95;44.99
15444;BME280;7822;48.146;11.576;2022-08-21T17:35:54;95287.94;;;24.89;45.00
15444;BME280;7822;48.146;11.576;2022-08-21T17:42:13;95285.69;;;24.73;45.22
15444;BME280;7822;48.146;11.576;2022-08-21T17:44:43;95288.97;;;24.68;45.77
15444;BME280;7822;48.146;11.576;2022-08-21T17:47:12;95279.59;;;24.66;43.83
15444;BME280;7822;48.146;11.576;2022-08-21T17:49:40;95288.16;;;24.61;45.27
15444;BME280;7822;48.146;11.576;2022-08-21T17:55:49;95283.09;;;24.47;45.80
15444;BME280;7822;48.146;11.576;2022-08-21T17:58:19;95292.28;;;24.44;45.89
15444;BME280;7822;48.146;11.576;2022-08-21T18:01:11;95290.03;;;24.41;46.18
15444;BME280;7822;48.146;11.576;2022-08-21T18:07:26;95293.31;;;24.30;46.88
15444;BME280;7822;48.146;11.576;2022-08-21T18:09:58;95299.88;;;24.27;46.99
15444;BME280;7822;48.146;11.576;2022-08-21T18:12:26;95295.19;;;24.23;46.92
15444;BME280;7822;48.146;11.576;2022-08-21T18:18:43;95303.53;;;24.13;47.43
15444;BME280;7822;48.146;11.576;2022-08-21T18:24:30;95314.50;;;24.04;47.37
15444;BME280;7822;48.146;11.576;2022-08-21T18:26:58;95307.56;;;24.03;46.36
15444;BME280;7822;48.146;11.576;2022-08-21T18:29:25;95309.78;;;23.99;47.61
15444;BME280;7822;48.146;11.576;2022-08-21T18:32:24;95313.53;;;24.05;47.12
15444;BME280;7822;48.146;11.576;2022-08-21T18:34:59;95320.41;;;23.99;47.58
15444;BME280;7822;48.146;11.576;2022-08-21T18:37:28;95315.31;;;23.98;47.44
15444;BME280;7822;48.146;11.576;2022-08-21T18:39:57;95314.31;;;23.92;48.10
15444;BME280;7822;48.146;11.576;2022-08-21T18:46:13;95322.22;;;23.79;48.60
15444;BME280;7822;48.146;11.576;2022-08-21T18:48:41;95321.59;;;23.77;48.71
15444;BME280;7822;48.146;11.576;2022-08-21T18:51:11;95324.88;;;23.79;47.58
15444;BME280;7822;48.146;11.576;2022-08-21T18:53:39;95324.88;;;23.79;48.32
15444;BME280;7822;48.146;11.576;2022-08-21T18:59:48;95323.22;;;23.65;48.65
15444;BME280;7822;48.146;11.576;2022-08-21T19:02:16;95329.50;;;23.64;48.78
15444;BME280;7822;48.146;11.576;2022-08-21T19:04:44;95329.31;;;23.59;48.75
15444;BME280;7822;48.146;11.576;2022-08-21T19:10:57;95323.56;;;23.42;49.20
15444;BME280;7822;48.146;11.576;2022-08-21T19:17:08;95333.06;;;23.30;49.32
15444;BME280;7822;48.146;11.576;2022-08-21T19:19:35;95343.44;;;23.32;50.19
15444;BME280;7822;48.146;11.576;2022-08-21T19:22:05;95333.53;;;23.40;49.27